createdAt,value
2023-01-28T00:00:00.746Z,33.80
2023-01-28T00:02:32.050Z,37.90
2023-01-28T00:05:00.581Z,34.70
2023-01-28T00:07:29.302Z,35.80
2023-01-28T00:09:57.968Z,31.80
2023-01-28T00:12:27.437Z,33.20
2023-01-28T00:14:55.819Z,30.40
2023-01-28T00:17:24.738Z,29.70
2023-01-28T00:19:53.708Z,28.40
2023-01-28T00:22:22.403Z,28.60
2023-01-28T00:24:50.955Z,28.20
2023-01-28T00:27:19.359Z,28.30
2023-01-28T00:29:48.759Z,25.90
2023-01-28T00:32:17.166Z,27.40
2023-01-28T00:34:45.792Z,28.00
2023-01-28T00:37:15.052Z,29.70
2023-01-28T00:39:44.235Z,27.00
2023-01-28T00:42:12.869Z,27.80
2023-01-28T00:44:41.441Z,25.80
2023-01-28T00:47:10.101Z,29.10
2023-01-28T00:49:38.582Z,27.70
2023-01-28T00:52:07.081Z,29.30
2023-01-28T00:54:36.565Z,30.20
2023-01-28T00:57:05.023Z,30.80
2023-01-28T00:59:37.169Z,31.70
2023-01-28T01:02:12.879Z,30.80
2023-01-28T01:04:41.764Z,29.00
2023-01-28T01:07:10.339Z,29.40
2023-01-28T01:09:39.236Z,29.90
2023-01-28T01:12:08.547Z,28.80
2023-01-28T01:14:37.755Z,27.80
2023-01-28T01:17:06.687Z,29.00
2023-01-28T01:19:35.039Z,28.10
2023-01-28T01:22:04.016Z,33.90
2023-01-28T01:24:34.331Z,47.50
2023-01-28T01:27:03.180Z,55.80
2023-01-28T01:29:34.028Z,57.50
2023-01-28T01:32:03.564Z,49.30
2023-01-28T01:34:32.501Z,54.00
2023-01-28T01:37:00.983Z,39.00
2023-01-28T01:39:29.740Z,39.90
2023-01-28T01:41:58.183Z,38.20
2023-01-28T01:44:58.299Z,33.40
2023-01-28T01:47:39.151Z,28.50
2023-01-28T01:50:12.849Z,25.90
2023-01-28T01:52:41.643Z,28.50
2023-01-28T01:55:14.041Z,28.90
2023-01-28T01:57:42.647Z,41.40
2023-01-28T02:00:13.065Z,42.60
2023-01-28T02:02:47.159Z,47.50
2023-01-28T02:05:19.337Z,41.80
2023-01-28T02:07:49.016Z,36.70
2023-01-28T02:10:18.897Z,34.50
2023-01-28T02:12:53.983Z,35.90
2023-01-28T02:15:27.125Z,43.90
2023-01-28T02:17:56.455Z,36.40
2023-01-28T02:20:27.203Z,36.20
2023-01-28T02:22:59.146Z,38.80
2023-01-28T02:25:33.999Z,44.10
2023-01-28T02:28:25.201Z,38.60
2023-01-28T02:31:16.868Z,42.00
2023-01-28T02:34:10.453Z,40.40
2023-01-28T02:37:03.465Z,34.20
2023-01-28T02:39:40.763Z,39.10
2023-01-28T02:42:16.593Z,34.50
2023-01-28T02:44:45.095Z,31.70
2023-01-28T02:47:34.788Z,26.10
2023-01-28T02:50:09.726Z,26.00
2023-01-28T02:53:40.011Z,26.00
2023-01-28T02:56:44.541Z,27.70
2023-01-28T03:02:30.707Z,25.50
2023-01-28T03:04:59.238Z,25.00
2023-01-28T03:07:29.627Z,28.90
2023-01-28T03:09:59.491Z,28.10
2023-01-28T03:12:46.759Z,31.30
2023-01-28T03:15:40.373Z,32.00
2023-01-28T03:18:36.890Z,29.30
2023-01-28T03:21:30.970Z,30.10
2023-01-28T03:24:34.611Z,30.30
2023-01-28T03:27:28.861Z,28.40
2023-01-28T03:30:32.846Z,25.50
2023-01-28T03:33:23.503Z,26.80
2023-01-28T03:36:10.875Z,25.70
2023-01-28T03:38:48.905Z,25.90
2023-01-28T03:41:25.809Z,25.90
2023-01-28T03:43:56.510Z,25.10
2023-01-28T03:46:25.395Z,29.30
2023-01-28T03:48:54.678Z,31.60
2023-01-28T03:51:23.512Z,32.50
2023-01-28T03:53:52.214Z,32.80
2023-01-28T03:56:27.146Z,40.10
2023-01-28T03:58:57.472Z,39.00
2023-01-28T04:01:26.014Z,39.10
2023-01-28T04:03:55.136Z,38.10
2023-01-28T04:06:31.253Z,32.80
2023-01-28T04:09:18.591Z,31.70
2023-01-28T04:12:07.753Z,30.00
2023-01-28T04:14:42.899Z,29.10
2023-01-28T04:17:15.414Z,30.50
2023-01-28T04:19:44.931Z,35.80
2023-01-28T04:22:13.956Z,37.50
2023-01-28T04:24:48.003Z,29.50
2023-01-28T04:27:17.503Z,32.50
2023-01-28T04:29:48.751Z,29.80
2023-01-28T04:32:40.901Z,27.90
2023-01-28T04:35:29.190Z,27.20
2023-01-28T04:38:04.343Z,25.90
2023-01-28T04:40:50.560Z,27.00
2023-01-28T04:43:27.740Z,23.90
2023-01-28T04:46:14.067Z,28.30
2023-01-28T04:48:49.549Z,28.60
2023-01-28T04:51:33.797Z,29.20
2023-01-28T04:54:28.492Z,27.30
2023-01-28T04:57:00.756Z,27.20
2023-01-28T04:59:30.062Z,26.10
2023-01-28T05:01:58.771Z,21.10
2023-01-28T05:04:27.970Z,23.80
2023-01-28T05:06:56.592Z,23.80
2023-01-28T05:09:29.111Z,22.20
2023-01-28T05:11:57.959Z,22.80
2023-01-28T05:14:26.385Z,21.30
2023-01-28T05:17:09.818Z,24.40
2023-01-28T05:19:39.145Z,22.00
2023-01-28T05:22:12.463Z,22.10
2023-01-28T05:24:44.657Z,22.50
2023-01-28T05:27:13.432Z,22.60
2023-01-28T05:29:41.894Z,21.10
2023-01-28T05:32:10.880Z,21.50
2023-01-28T05:34:39.464Z,24.30
2023-01-28T05:37:12.386Z,21.60
2023-01-28T05:39:40.937Z,22.10
2023-01-28T05:42:09.832Z,23.20
2023-01-28T05:44:43.623Z,23.60
2023-01-28T05:47:18.036Z,20.20
2023-01-28T05:50:10.315Z,21.20
2023-01-28T05:52:45.106Z,20.80
2023-01-28T05:55:22.312Z,19.50
2023-01-28T05:57:52.865Z,20.90
2023-01-28T06:00:25.177Z,19.70
2023-01-28T06:02:53.776Z,22.10
2023-01-28T06:05:23.468Z,20.30
2023-01-28T06:07:52.530Z,20.60
2023-01-28T06:10:21.940Z,21.20
2023-01-28T06:12:50.995Z,19.30
2023-01-28T06:15:39.390Z,18.40
2023-01-28T06:18:25.412Z,20.60
2023-01-28T06:20:54.760Z,21.70
2023-01-28T06:23:23.475Z,19.60
2023-01-28T06:25:56.617Z,21.20
2023-01-28T06:28:26.408Z,19.90
2023-01-28T06:30:55.082Z,21.40
2023-01-28T06:33:26.341Z,23.30
2023-01-28T06:35:59.802Z,22.00
2023-01-28T06:38:28.485Z,24.70
2023-01-28T06:40:58.437Z,18.40
2023-01-28T06:43:30.892Z,19.00
2023-01-28T06:45:59.612Z,18.80
2023-01-28T06:48:28.331Z,20.30
2023-01-28T06:51:01.042Z,17.50
2023-01-28T06:53:33.253Z,18.70
2023-01-28T06:56:01.710Z,21.40
2023-01-28T06:58:30.460Z,19.30
2023-01-28T07:00:59.315Z,18.30
2023-01-28T07:03:27.935Z,19.60
2023-01-28T07:05:56.376Z,17.10
2023-01-28T07:08:24.820Z,16.50
2023-01-28T07:10:53.478Z,18.60
2023-01-28T07:13:22.311Z,19.30
2023-01-28T07:15:50.932Z,17.70
2023-01-28T07:18:19.331Z,17.70
2023-01-28T07:20:48.006Z,37.70
2023-01-28T07:23:17.836Z,35.60
2023-01-28T07:25:46.219Z,32.70
2023-01-28T07:28:14.520Z,62.20
2023-01-28T07:30:43.032Z,35.80
2023-01-28T07:33:11.649Z,52.50
2023-01-28T07:35:40.057Z,51.60
2023-01-28T07:38:08.488Z,26.70
2023-01-28T07:40:37.138Z,19.80
2023-01-28T07:43:07.409Z,22.80
2023-01-28T07:45:40.298Z,18.70
2023-01-28T07:48:10.744Z,16.90
2023-01-28T07:50:40.410Z,17.70
2023-01-28T07:53:11.517Z,19.00
2023-01-28T07:55:40.744Z,18.10
2023-01-28T07:58:11.055Z,17.30
2023-01-28T08:00:39.806Z,18.80
2023-01-28T08:03:16.100Z,18.70
2023-01-28T08:05:48.632Z,19.10
2023-01-28T08:08:17.698Z,18.70
2023-01-28T08:10:46.093Z,17.40
2023-01-28T08:13:15.899Z,38.70
2023-01-28T08:15:44.824Z,264.90
2023-01-28T08:18:14.236Z,89.00
2023-01-28T08:20:47.693Z,80.70
2023-01-28T08:23:18.952Z,33.10
2023-01-28T08:25:48.647Z,24.60
2023-01-28T08:28:18.608Z,20.40
2023-01-28T08:30:47.281Z,17.40
2023-01-28T08:33:16.702Z,16.70
2023-01-28T08:35:47.264Z,18.60
2023-01-28T08:38:17.977Z,19.90
2023-01-28T08:43:22.716Z,17.80
2023-01-28T08:45:51.666Z,18.80
2023-01-28T08:48:20.423Z,22.80
2023-01-28T08:50:49.041Z,26.50
2023-01-28T08:53:19.219Z,24.60
2023-01-28T08:55:47.698Z,26.90
2023-01-28T08:58:17.473Z,25.60
2023-01-28T09:00:46.081Z,21.00
2023-01-28T09:03:14.478Z,20.50
2023-01-28T09:05:44.053Z,18.70
2023-01-28T09:08:14.678Z,26.20
2023-01-28T09:10:43.471Z,24.60
2023-01-28T09:13:14.351Z,19.50
2023-01-28T09:15:43.351Z,19.40
2023-01-28T09:18:11.891Z,21.30
2023-01-28T09:20:40.502Z,20.20
2023-01-28T09:23:08.997Z,18.00
2023-01-28T09:25:37.802Z,20.40
2023-01-28T09:28:06.618Z,18.40
2023-01-28T09:30:37.380Z,19.50
2023-01-28T09:33:06.500Z,18.80
2023-01-28T09:35:35.105Z,18.70
2023-01-28T09:38:03.733Z,20.10
2023-01-28T09:40:41.210Z,16.40
2023-01-28T09:43:20.144Z,19.00
2023-01-28T09:45:49.819Z,16.20
2023-01-28T09:48:32.939Z,19.40
2023-01-28T09:51:02.663Z,19.60
2023-01-28T09:53:32.625Z,18.50
2023-01-28T09:56:02.316Z,17.50
2023-01-28T09:58:31.936Z,17.70
2023-01-28T10:01:14.619Z,17.10
2023-01-28T10:03:46.034Z,18.10
2023-01-28T10:06:29.161Z,17.30
2023-01-28T10:08:57.511Z,19.60
2023-01-28T10:11:39.736Z,18.60
2023-01-28T10:14:18.388Z,17.10
2023-01-28T10:16:50.610Z,16.60
2023-01-28T10:19:28.859Z,17.20
2023-01-28T10:22:01.886Z,18.50
2023-01-28T10:24:34.220Z,17.10
2023-01-28T10:27:22.931Z,16.80
2023-01-28T10:29:51.510Z,14.40
2023-01-28T10:32:37.280Z,17.40
2023-01-28T10:35:06.104Z,16.90
2023-01-28T10:37:35.906Z,17.60
2023-01-28T10:40:04.830Z,15.70
2023-01-28T10:42:35.689Z,17.70
2023-01-28T10:45:10.656Z,16.10
2023-01-28T10:47:43.709Z,17.80
2023-01-28T10:50:28.395Z,18.10
2023-01-28T10:52:57.861Z,18.70
2023-01-28T10:55:30.415Z,17.50
2023-01-28T10:57:58.919Z,18.20
2023-01-28T11:00:35.981Z,18.20
2023-01-28T11:03:04.541Z,17.70
2023-01-28T11:05:32.983Z,16.40
2023-01-28T11:08:11.377Z,17.90
2023-01-28T11:10:41.240Z,21.30
2023-01-28T11:13:21.299Z,33.00
2023-01-28T11:16:02.589Z,38.30
2023-01-28T11:18:55.528Z,38.70
2023-01-28T11:21:28.216Z,37.80
2023-01-28T11:24:02.365Z,29.40
2023-01-28T11:26:43.445Z,30.80
2023-01-28T11:29:33.725Z,23.00
2023-01-28T11:32:02.594Z,20.40
2023-01-28T11:34:53.365Z,34.20
2023-01-28T11:37:24.906Z,27.60
2023-01-28T11:40:23.858Z,34.50
2023-01-28T11:42:52.911Z,29.60
2023-01-28T11:45:31.432Z,31.40
2023-01-28T11:48:23.246Z,29.30
2023-01-28T11:50:58.578Z,23.10
2023-01-28T11:53:32.366Z,23.70
2023-01-28T11:56:24.449Z,23.30
2023-01-28T11:59:06.439Z,25.60
2023-01-28T12:01:38.650Z,31.40
2023-01-28T12:04:23.972Z,32.10
2023-01-28T12:06:59.943Z,37.20
2023-01-28T12:09:44.253Z,44.00
2023-01-28T12:12:27.552Z,39.90
2023-01-28T12:15:04.757Z,49.20
2023-01-28T12:17:45.960Z,35.60
2023-01-28T12:20:17.591Z,26.60
2023-01-28T12:22:58.161Z,24.80
2023-01-28T12:26:06.438Z,30.00
2023-01-28T12:28:58.675Z,28.50
2023-01-28T12:31:31.820Z,31.00
2023-01-28T12:34:38.884Z,25.20
2023-01-28T12:37:16.794Z,20.80
2023-01-28T12:40:23.121Z,20.00
2023-01-28T12:43:03.516Z,18.50
2023-01-28T12:45:42.954Z,17.70
2023-01-28T12:48:45.707Z,20.00
2023-01-28T12:51:25.520Z,22.80
2023-01-28T12:53:57.892Z,21.90
2023-01-28T12:56:33.696Z,24.30
2023-01-28T12:59:27.794Z,27.20
2023-01-28T13:02:11.974Z,17.90
2023-01-28T13:04:43.076Z,16.80
2023-01-28T13:07:44.231Z,17.10
2023-01-28T13:10:30.364Z,20.10
2023-01-28T13:13:37.920Z,21.50
2023-01-28T13:20:57.191Z,17.50
2023-01-28T13:23:51.509Z,22.20
2023-01-28T13:26:24.767Z,18.10
2023-01-28T13:28:54.369Z,22.10
2023-01-28T13:31:24.062Z,20.70
2023-01-28T13:33:54.969Z,19.50
2023-01-28T13:36:34.809Z,17.90
2023-01-28T13:39:24.302Z,18.20
2023-01-28T13:41:54.471Z,17.60
2023-01-28T13:44:26.020Z,18.50
2023-01-28T13:46:56.846Z,16.00
2023-01-28T13:49:46.199Z,18.60
2023-01-28T13:52:28.706Z,13.80
2023-01-28T13:55:02.073Z,15.50
2023-01-28T14:00:08.907Z,18.30
2023-01-28T14:03:00.243Z,19.40
2023-01-28T14:05:56.915Z,19.30
2023-01-28T14:08:34.840Z,17.30
2023-01-28T14:11:31.504Z,18.60
2023-01-28T14:14:28.619Z,20.10
2023-01-28T14:17:37.236Z,34.20
2023-01-28T14:20:14.498Z,43.30
2023-01-28T14:22:43.266Z,38.80
2023-01-28T14:25:14.150Z,38.40
2023-01-28T14:27:45.276Z,34.00
2023-01-28T14:30:19.971Z,29.60
2023-01-28T14:32:50.486Z,38.80
2023-01-28T14:35:24.564Z,38.70
2023-01-28T14:37:54.980Z,32.80
2023-01-28T14:40:24.217Z,30.80
2023-01-28T14:42:53.940Z,38.10
2023-01-28T14:46:05.017Z,29.10
2023-01-28T14:48:46.198Z,21.00
2023-01-28T14:51:33.156Z,14.40
2023-01-28T14:54:08.097Z,12.90
2023-01-28T14:56:49.473Z,20.10
2023-01-28T14:59:21.538Z,22.40
2023-01-28T15:01:54.612Z,26.70
2023-01-28T15:04:31.735Z,28.10
2023-01-28T15:07:26.548Z,30.20
2023-01-28T15:10:06.694Z,41.60
2023-01-28T15:12:39.828Z,42.10
2023-01-28T15:15:50.060Z,50.90
2023-01-28T15:18:22.844Z,53.50
2023-01-28T15:20:52.800Z,45.10
2023-01-28T15:23:29.710Z,50.20
2023-01-28T15:25:59.475Z,51.20
2023-01-28T15:28:31.966Z,39.80
2023-01-28T15:31:00.586Z,41.10
2023-01-28T15:33:32.318Z,33.90
2023-01-28T15:36:00.889Z,52.10
2023-01-28T15:38:29.472Z,43.70
2023-01-28T15:41:01.937Z,42.20
2023-01-28T15:43:37.376Z,48.40
2023-01-28T15:46:11.875Z,43.00
2023-01-28T15:48:49.963Z,41.10
2023-01-28T15:51:29.361Z,37.60
2023-01-28T15:54:03.572Z,28.40
2023-01-28T15:56:32.714Z,31.10
2023-01-28T15:59:23.580Z,26.20
2023-01-28T16:02:20.266Z,25.80
2023-01-28T16:04:59.589Z,19.90
2023-01-28T16:07:32.993Z,24.60
2023-01-28T16:10:02.832Z,21.90
2023-01-28T16:12:32.371Z,18.10
2023-01-28T16:15:01.773Z,17.00
2023-01-28T16:17:40.552Z,20.00
2023-01-28T16:20:17.767Z,17.60
2023-01-28T16:22:46.427Z,15.70
2023-01-28T16:25:24.311Z,15.10
2023-01-28T16:27:53.159Z,12.80
2023-01-28T16:30:21.666Z,13.20
2023-01-28T16:32:51.890Z,15.30
2023-01-28T16:35:22.601Z,17.10
2023-01-28T16:37:51.834Z,17.10
2023-01-28T16:40:22.795Z,17.10
2023-01-28T16:42:56.235Z,19.30
2023-01-28T16:45:25.315Z,18.40
2023-01-28T16:47:53.806Z,20.70
2023-01-28T16:50:23.180Z,19.80
2023-01-28T16:52:52.198Z,21.00
2023-01-28T16:55:21.692Z,24.00
2023-01-28T16:57:53.224Z,27.70
2023-01-28T17:00:26.395Z,31.00
2023-01-28T17:02:55.255Z,40.10
2023-01-28T17:05:27.049Z,50.90
2023-01-28T17:08:04.362Z,53.40
2023-01-28T17:10:33.229Z,44.40
2023-01-28T17:13:01.821Z,43.60
2023-01-28T17:15:30.859Z,43.80
2023-01-28T17:17:59.745Z,44.50
2023-01-28T17:20:32.937Z,40.70
2023-01-28T17:23:01.935Z,35.60
2023-01-28T17:25:30.467Z,36.50
2023-01-28T17:27:59.067Z,39.80
2023-01-28T17:30:27.577Z,40.50
2023-01-28T17:32:56.462Z,40.10
2023-01-28T17:35:25.043Z,42.70
2023-01-28T17:37:56.368Z,48.30
2023-01-28T17:40:25.159Z,45.20
2023-01-28T17:42:55.614Z,53.90
2023-01-28T17:45:31.471Z,46.10
2023-01-28T17:48:01.913Z,55.40
2023-01-28T17:50:30.838Z,46.90
2023-01-28T17:52:59.438Z,51.40
2023-01-28T17:55:27.962Z,59.30
2023-01-28T17:57:56.359Z,56.20
2023-01-28T18:00:27.163Z,58.10
2023-01-28T18:02:55.663Z,63.30
2023-01-28T18:05:24.127Z,68.90
2023-01-28T18:07:52.889Z,84.60
2023-01-28T18:10:21.784Z,77.20
2023-01-28T18:12:51.544Z,46.30
2023-01-28T18:15:20.170Z,48.90
2023-01-28T18:17:53.368Z,53.20
2023-01-28T18:20:22.219Z,60.40
2023-01-28T18:22:50.653Z,61.90
2023-01-28T18:25:21.103Z,68.90
2023-01-28T18:27:49.906Z,60.20
2023-01-28T18:30:18.674Z,63.90
2023-01-28T18:32:47.559Z,63.40
2023-01-28T18:35:27.659Z,61.60
2023-01-28T18:37:56.042Z,50.80
2023-01-28T18:40:25.158Z,53.80
2023-01-28T18:42:53.544Z,55.00
2023-01-28T18:45:22.536Z,54.80
2023-01-28T18:47:51.568Z,48.30
2023-01-28T18:50:20.235Z,52.40
2023-01-28T18:52:49.339Z,53.50
2023-01-28T18:55:19.112Z,68.20
2023-01-28T18:57:48.585Z,63.50
2023-01-28T19:00:19.230Z,61.60
2023-01-28T19:02:47.548Z,62.30
2023-01-28T19:05:17.766Z,73.20
2023-01-28T19:07:47.057Z,67.40
2023-01-28T19:10:16.967Z,69.50
2023-01-28T19:12:46.541Z,60.90
2023-01-28T19:15:15.858Z,48.20
2023-01-28T19:17:45.954Z,36.70
2023-01-28T19:20:14.373Z,28.70
2023-01-28T19:22:42.825Z,25.50
2023-01-28T19:25:11.609Z,19.70
2023-01-28T19:27:40.218Z,19.10
2023-01-28T19:30:09.450Z,17.90
2023-01-28T19:32:38.378Z,17.80
2023-01-28T19:35:07.570Z,19.10
2023-01-28T19:37:36.422Z,19.90
2023-01-28T19:40:06.286Z,18.40
2023-01-28T19:42:35.292Z,20.70
2023-01-28T19:45:23.594Z,19.80
2023-01-28T19:47:52.591Z,22.90
2023-01-28T19:50:21.112Z,24.40
2023-01-28T19:52:49.798Z,22.20
2023-01-28T19:55:18.583Z,22.50
2023-01-28T19:57:47.413Z,28.60
2023-01-28T20:00:16.210Z,33.40
2023-01-28T20:02:44.601Z,37.40
2023-01-28T20:05:16.417Z,34.60
2023-01-28T20:07:45.329Z,36.80
2023-01-28T20:10:14.183Z,41.20
2023-01-28T20:12:42.837Z,51.00
2023-01-28T20:15:11.780Z,55.90
2023-01-28T20:17:40.423Z,54.00
2023-01-28T20:20:12.061Z,49.40
2023-01-28T20:22:41.855Z,58.70
2023-01-28T20:25:10.471Z,56.30
2023-01-28T20:27:39.319Z,55.30
2023-01-28T20:30:09.072Z,61.40
2023-01-28T20:32:37.913Z,67.80
2023-01-28T20:35:06.721Z,62.70
2023-01-28T20:37:35.648Z,61.00
2023-01-28T20:40:04.577Z,71.10
2023-01-28T20:42:33.048Z,72.20
2023-01-28T20:45:01.504Z,69.70
2023-01-28T20:47:31.021Z,60.50
2023-01-28T20:49:59.846Z,74.90
2023-01-28T20:52:28.231Z,64.10
2023-01-28T20:54:56.849Z,53.20
2023-01-28T20:57:25.785Z,48.10
2023-01-28T20:59:54.352Z,44.40
2023-01-28T21:02:23.163Z,37.40
2023-01-28T21:04:51.704Z,42.40
2023-01-28T21:07:22.981Z,70.50
2023-01-28T21:09:51.658Z,55.10
2023-01-28T21:12:20.091Z,56.30
2023-01-28T21:14:49.526Z,53.40
2023-01-28T21:17:21.243Z,56.40
2023-01-28T21:19:49.675Z,65.10
2023-01-28T21:22:18.192Z,51.40
2023-01-28T21:24:51.329Z,53.90
2023-01-28T21:27:25.927Z,52.60
2023-01-28T21:29:55.059Z,44.50
2023-01-28T21:32:26.624Z,25.30
2023-01-28T21:34:56.246Z,30.40
2023-01-28T21:37:25.172Z,27.50
2023-01-28T21:39:53.599Z,26.20
2023-01-28T21:42:22.584Z,18.80
2023-01-28T21:44:51.111Z,16.40
2023-01-28T21:47:19.507Z,14.70
2023-01-28T21:49:48.066Z,15.60
2023-01-28T21:52:16.958Z,17.30
2023-01-28T21:54:45.863Z,17.00
2023-01-28T21:57:15.154Z,24.40
2023-01-28T21:59:43.841Z,25.60
2023-01-28T22:02:13.878Z,20.10
2023-01-28T22:04:46.324Z,17.00
2023-01-28T22:07:17.458Z,12.70
2023-01-28T22:09:46.458Z,10.60
2023-01-28T22:12:16.769Z,11.40
2023-01-28T22:14:46.942Z,10.90
2023-01-28T22:17:18.746Z,15.90
2023-01-28T22:19:48.437Z,18.00
2023-01-28T22:22:17.116Z,25.80
2023-01-28T22:24:45.547Z,37.60
2023-01-28T22:27:14.375Z,38.50
2023-01-28T22:29:42.750Z,45.50
2023-01-28T22:32:11.429Z,44.70
2023-01-28T22:34:39.898Z,62.30
2023-01-28T22:37:08.343Z,38.00
2023-01-28T22:39:36.768Z,38.40
2023-01-28T22:42:05.516Z,32.50
2023-01-28T22:44:34.283Z,32.20
2023-01-28T22:47:03.514Z,30.70
2023-01-28T22:49:31.943Z,34.00
2023-01-28T22:52:00.654Z,44.90
2023-01-28T22:54:29.162Z,38.00
2023-01-28T22:56:57.635Z,52.10
2023-01-28T22:59:26.526Z,41.10
2023-01-28T23:01:55.104Z,28.00
2023-01-28T23:04:23.343Z,36.50
2023-01-28T23:06:52.142Z,33.10
2023-01-28T23:09:20.459Z,34.10
2023-01-28T23:11:49.315Z,20.70
2023-01-28T23:14:36.164Z,25.80
2023-01-28T23:17:23.287Z,22.40
2023-01-28T23:20:11.477Z,26.90
2023-01-28T23:22:58.621Z,15.00
2023-01-28T23:25:27.148Z,11.30
2023-01-28T23:27:55.587Z,9.60
2023-01-28T23:30:25.499Z,12.10
2023-01-28T23:32:56.784Z,12.00
2023-01-28T23:35:27.729Z,10.80
2023-01-28T23:37:57.095Z,10.80
2023-01-28T23:40:27.427Z,12.70
2023-01-28T23:42:56.455Z,13.00
2023-01-28T23:45:25.367Z,11.10
2023-01-28T23:47:54.600Z,10.60
2023-01-28T23:50:23.204Z,13.40
2023-01-28T23:52:54.182Z,11.20
2023-01-28T23:55:22.746Z,10.80
2023-01-28T23:57:51.538Z,10.20
